createdAt,value
2024-02-29T00:00:01.385Z,5.2
2024-02-29T00:05:24.671Z,5.1
2024-02-29T00:11:03.622Z,4.9
2024-02-29T00:16:42.741Z,4.9
2024-02-29T00:22:21.519Z,4.9
2024-02-29T00:27:44.945Z,4.8
2024-02-29T00:33:23.766Z,4.8
2024-02-29T00:39:18.961Z,4.8
2024-02-29T00:44:57.652Z,4.7
2024-02-29T00:50:37.077Z,4.7
2024-02-29T00:56:16.238Z,4.6
2024-02-29T01:01:39.664Z,4.6
2024-02-29T01:07:18.614Z,4.5
2024-02-29T01:12:57.643Z,4.4
2024-02-29T01:18:36.154Z,4.4
2024-02-29T01:24:02.823Z,4.4
2024-02-29T01:29:40.997Z,4.3
2024-02-29T01:35:31.994Z,4.3
2024-02-29T01:41:10.972Z,4.3
2024-02-29T01:46:33.913Z,4.2
2024-02-29T01:52:13.115Z,4.2
2024-02-29T01:57:53.651Z,4.1
2024-02-29T02:03:35.185Z,4
2024-02-29T02:09:14.238Z,4
2024-02-29T02:14:53.228Z,4.1
2024-02-29T02:20:01.079Z,4.1
2024-02-29T02:25:24.229Z,4.1
2024-02-29T02:30:47.534Z,4
2024-02-29T02:36:09.985Z,4.1
2024-02-29T02:41:33.150Z,3.9
2024-02-29T02:46:40.662Z,3.9
2024-02-29T02:52:04.313Z,3.9
2024-02-29T02:57:11.698Z,3.9
2024-02-29T03:02:50.649Z,3.8
2024-02-29T03:08:29.402Z,3.7
2024-02-29T03:14:08.477Z,3.6
2024-02-29T03:19:47.464Z,3.6
2024-02-29T03:25:25.979Z,3.5
2024-02-29T03:31:04.943Z,3.5
2024-02-29T03:36:43.424Z,3.4
2024-02-29T03:42:21.936Z,3.4
2024-02-29T03:48:00.921Z,3.4
2024-02-29T03:53:39.675Z,3.3
2024-02-29T03:59:18.219Z,3.3
2024-02-29T04:04:57.464Z,3.3
2024-02-29T04:10:36.213Z,3.3
2024-02-29T04:16:14.940Z,3.2
2024-02-29T04:21:53.572Z,3.2
2024-02-29T04:27:32.554Z,3.1
2024-02-29T04:33:11.239Z,3.1
2024-02-29T04:38:50.234Z,3.2
2024-02-29T04:44:28.694Z,3.1
2024-02-29T04:49:51.536Z,3.2
2024-02-29T04:55:30.431Z,3.2
2024-02-29T05:01:09.499Z,3.1
2024-02-29T05:06:48.321Z,3.2
2024-02-29T05:12:13.840Z,3.1
2024-02-29T05:17:52.484Z,3.2
2024-02-29T05:23:30.895Z,3.3
2024-02-29T05:29:09.843Z,3.3
2024-02-29T05:34:50.679Z,3.3
2024-02-29T05:40:29.562Z,3.4
2024-02-29T05:46:12.465Z,3.4
2024-02-29T05:51:35.724Z,3.5
2024-02-29T05:57:13.940Z,3.6
2024-02-29T06:02:53.556Z,3.8
2024-02-29T06:08:33.934Z,4
2024-02-29T06:14:12.620Z,4.3
2024-02-29T06:19:51.869Z,4.4
2024-02-29T06:25:30.757Z,4.8
2024-02-29T06:31:09.916Z,5.1
2024-02-29T06:36:49.143Z,5.4
2024-02-29T06:42:28.235Z,5.8
2024-02-29T06:47:52.117Z,6.1
2024-02-29T06:53:31.249Z,6.8
2024-02-29T06:59:11.447Z,7.4
2024-02-29T07:04:50.332Z,8.2
2024-02-29T07:10:29.806Z,9.1
2024-02-29T07:16:09.468Z,10
2024-02-29T07:21:48.082Z,10.7
2024-02-29T07:27:11.938Z,11.3
2024-02-29T07:32:51.840Z,11.8
2024-02-29T07:38:15.472Z,12.1
2024-02-29T07:43:40.101Z,12.4
2024-02-29T07:49:21.937Z,12.6
2024-02-29T07:55:01.570Z,12.8
2024-02-29T08:00:44.857Z,12.8
2024-02-29T08:06:25.550Z,12.9
2024-02-29T08:12:05.104Z,13.2
2024-02-29T08:17:47.350Z,13.6
2024-02-29T08:23:26.607Z,14.3
2024-02-29T08:28:50.029Z,15.3
2024-02-29T08:34:31.403Z,16.2
2024-02-29T08:40:09.869Z,16.7
2024-02-29T08:45:48.303Z,16.8
2024-02-29T08:51:28.209Z,16.6
2024-02-29T08:57:06.509Z,16.4
2024-02-29T09:02:46.006Z,16.4
2024-02-29T09:08:27.581Z,16.7
2024-02-29T09:14:21.227Z,17.3
2024-02-29T09:20:01.242Z,18.1
2024-02-29T09:25:28.536Z,18.8
2024-02-29T09:31:11.341Z,19.7
2024-02-29T09:36:54.320Z,19.8
2024-02-29T09:43:09.760Z,19.6
2024-02-29T09:48:51.560Z,19.6
2024-02-29T09:54:40.436Z,19.3
2024-02-29T10:00:07.391Z,19.3
2024-02-29T10:05:49.512Z,19.2
2024-02-29T10:11:32.550Z,19.2
2024-02-29T10:17:11.415Z,20.1
2024-02-29T10:22:52.945Z,22.3
2024-02-29T10:28:30.887Z,25
2024-02-29T10:34:12.299Z,26.9
2024-02-29T10:39:53.261Z,28.4
2024-02-29T10:45:32.382Z,31.6
2024-02-29T10:50:56.507Z,37.8
2024-02-29T10:56:36.985Z,40.1
2024-02-29T11:02:16.031Z,41.1
2024-02-29T11:07:55.006Z,42.4
2024-02-29T11:13:34.632Z,46.9
2024-02-29T11:18:42.169Z,50.3
2024-02-29T11:24:40.183Z,45.9
2024-02-29T11:30:19.750Z,39.6
2024-02-29T11:35:59.264Z,42.5
2024-02-29T11:41:51.857Z,54.1
2024-02-29T11:47:15.529Z,46.4
2024-02-29T11:52:57.715Z,36.8
2024-02-29T11:58:53.066Z,35.9
2024-02-29T12:04:33.333Z,37.1
2024-02-29T12:10:12.843Z,37.7
2024-02-29T12:15:55.957Z,37.8
2024-02-29T12:21:19.807Z,37.5
2024-02-29T12:27:03.276Z,37.4
2024-02-29T12:32:43.065Z,38.6
2024-02-29T12:38:24.088Z,41.7
2024-02-29T12:44:04.571Z,41.7
2024-02-29T12:49:44.605Z,40.6
2024-02-29T12:55:25.211Z,39.9
2024-02-29T13:01:09.733Z,40.1
2024-02-29T13:06:52.354Z,39.4
2024-02-29T13:12:18.436Z,38.7
2024-02-29T13:17:33.428Z,38.5
2024-02-29T13:23:13.572Z,38.4
2024-02-29T13:28:41.794Z,38.3
2024-02-29T13:34:24.339Z,38.3
2024-02-29T13:40:03.766Z,38
2024-02-29T13:45:42.982Z,38.5
2024-02-29T13:51:24.417Z,40.9
2024-02-29T13:56:48.526Z,41.4
2024-02-29T14:02:13.495Z,40.5
2024-02-29T14:07:52.865Z,38.5
2024-02-29T14:13:32.568Z,36.6
2024-02-29T14:19:14.727Z,35.1
2024-02-29T14:24:53.802Z,33.9
2024-02-29T14:30:17.415Z,33.6
2024-02-29T14:35:58.273Z,33.6
2024-02-29T14:41:37.748Z,33.7
2024-02-29T14:47:17.302Z,33.4
2024-02-29T14:52:58.347Z,32.9
2024-02-29T14:58:38.020Z,31.8
2024-02-29T15:04:02.681Z,30.5
2024-02-29T15:09:43.691Z,29.3
2024-02-29T15:15:27.601Z,28.1
2024-02-29T15:21:07.509Z,27
2024-02-29T15:26:31.107Z,25.9
2024-02-29T15:31:55.168Z,24.9
2024-02-29T15:37:37.417Z,23.8
2024-02-29T15:43:16.465Z,22.9
2024-02-29T15:48:56.007Z,21.8
2024-02-29T15:54:23.202Z,20.8
2024-02-29T16:00:04.670Z,19.9
2024-02-29T16:05:44.814Z,19.2
2024-02-29T16:11:10.115Z,18.4
2024-02-29T16:16:37.350Z,17.8
2024-02-29T16:22:17.199Z,17.1
2024-02-29T16:27:56.398Z,16.5
2024-02-29T16:33:38.153Z,15.9
2024-02-29T16:39:17.069Z,15.4
2024-02-29T16:44:59.637Z,14.9
2024-02-29T16:50:39.122Z,14.6
2024-02-29T16:56:18.752Z,14.1
2024-02-29T17:01:58.351Z,13.8
2024-02-29T17:07:41.449Z,13.5
2024-02-29T17:13:23.592Z,13.3
2024-02-29T17:18:49.382Z,13
2024-02-29T17:24:28.423Z,12.7
2024-02-29T17:30:07.913Z,12.4
2024-02-29T17:35:46.999Z,12.1
2024-02-29T17:41:13.185Z,11.9
2024-02-29T17:46:52.151Z,11.7
2024-02-29T17:52:33.173Z,11.5
2024-02-29T17:58:12.961Z,11.4
2024-02-29T18:03:53.349Z,11.3
2024-02-29T18:09:41.188Z,11.1
2024-02-29T18:15:20.286Z,11.1
2024-02-29T18:21:00.300Z,10.9
2024-02-29T18:26:39.751Z,10.8
2024-02-29T18:32:18.984Z,10.8
2024-02-29T18:37:58.993Z,10.6
2024-02-29T18:43:38.193Z,10.6
2024-02-29T18:49:32.148Z,10.5
2024-02-29T18:55:13.667Z,10.4
2024-02-29T19:00:52.997Z,10.3
2024-02-29T19:06:34.500Z,10.3
2024-02-29T19:12:17.787Z,10.1
2024-02-29T19:17:25.658Z,10.1
2024-02-29T19:22:52.523Z,10.1
2024-02-29T19:28:32.276Z,10
2024-02-29T19:34:10.946Z,10
2024-02-29T19:39:53.499Z,9.9
2024-02-29T19:45:33.640Z,9.8
2024-02-29T19:50:57.394Z,9.8
2024-02-29T19:56:21.383Z,9.7
2024-02-29T20:02:01.639Z,9.7
2024-02-29T20:07:41.149Z,9.6
2024-02-29T20:13:04.992Z,9.6
2024-02-29T20:18:14.256Z,9.6
2024-02-29T20:23:39.119Z,9.6
2024-02-29T20:28:50.184Z,9.5
2024-02-29T20:34:15.033Z,9.5
2024-02-29T20:39:54.969Z,9.5
2024-02-29T20:45:19.477Z,9.5
2024-02-29T20:50:28.720Z,9.5
2024-02-29T20:55:52.528Z,9.5
2024-02-29T21:01:00.598Z,9.5
2024-02-29T21:06:09.002Z,9.5
2024-02-29T21:11:33.727Z,9.5
2024-02-29T21:16:57.502Z,9.5
2024-02-29T21:22:21.630Z,9.5
2024-02-29T21:27:44.442Z,9.4
2024-02-29T21:33:11.441Z,9.4
2024-02-29T21:38:35.262Z,9.3
2024-02-29T21:43:53.328Z,9.3
2024-02-29T21:49:32.252Z,9.3
2024-02-29T21:55:11.299Z,9.2
2024-02-29T22:00:50.164Z,9.1
2024-02-29T22:06:15.753Z,9.1
2024-02-29T22:11:57.998Z,9
2024-02-29T22:17:36.779Z,8.9
2024-02-29T22:23:19.263Z,8.9
2024-02-29T22:28:43.035Z,8.9
2024-02-29T22:34:22.586Z,8.8
2024-02-29T22:40:01.621Z,8.8
2024-02-29T22:45:52.718Z,8.8
2024-02-29T22:51:31.844Z,8.7
2024-02-29T22:57:11.215Z,8.7
2024-02-29T23:02:56.662Z,8.7
2024-02-29T23:08:36.165Z,8.6
2024-02-29T23:14:00.696Z,8.6
2024-02-29T23:19:24.495Z,8.6
2024-02-29T23:25:04.641Z,8.5
2024-02-29T23:30:48.283Z,8.4
2024-02-29T23:36:30.708Z,8.4
2024-02-29T23:41:54.621Z,8.3
2024-02-29T23:47:33.191Z,8.3
2024-02-29T23:53:12.513Z,8.3
2024-02-29T23:58:51.752Z,8.2
